Papere Vagabonde

Aviosuperficie Caposile LIKI

Pista 04


Pista 22


Le immagini vengono aggiornate ogni minuto

METAR LIPZ

LIPZ 301750Z 07011KT 9999 SCT030 19/16 Q1005 NOSIG

TAF LIPZ 301700Z 3018/3124 04012KT 8000 SCT040 
  TEMPO 3018/3024 4000 TSRA BKN008 
  TEMPO 3100/3106 RA 
  TEMPO 3106/3112 4000 TSRA BKN008 
  BECMG 3110/3112 25012KT



      

Alba: 05:24
Tramonto: 20:49

LOW LEVEL SIGWX CHART

ALL WEATHER DATA